Time;durP1;ratioP1;P1;durP2;ratioP2;P2;SDS_P1;SDS_P2;PMS_P1;PMS_P2;Temp;Humidity;BMP_temperature;BMP_pressure;BME280_temperature;BME280_humidity;BME280_pressure;Samples;Min_cycle;Max_cycle;Signal;HPM_P1;HPM_P2
2022/05/13 00:00:16;;;;;;;2.92;2.10;;;;;;;25.15;46.24;99642.66;4133100;28;20234;-69
2022/05/13 00:02:18;;;;;;;4.82;2.70;;;;;;;24.68;47.23;99639.47;4134506;28;20292;-69
2022/05/13 00:04:20;;;;;;;2.78;2.15;;;;;;;24.62;47.10;99628.81;4128887;28;20254;-69
2022/05/13 00:06:22;;;;;;;5.40;2.20;;;;;;;24.94;46.32;99631.59;4131714;28;20265;-69
2022/05/13 00:08:24;;;;;;;4.10;2.25;;;;;;;24.91;46.36;99629.38;4126518;28;20296;-69
2022/05/13 00:10:26;;;;;;;3.72;2.00;;;;;;;25.02;46.32;99628.41;4133861;28;20284;-69
2022/05/13 00:12:30;;;;;;;4.10;2.30;;;;;;;25.00;46.60;99624.28;4135533;28;20234;-69
2022/05/13 00:14:31;;;;;;;4.00;2.65;;;;;;;25.03;46.32;99616.44;4135041;28;20229;-69
2022/05/13 00:16:36;;;;;;;4.80;2.25;;;;;;;25.22;45.84;99625.06;4136228;28;20233;-69
2022/05/13 00:18:38;;;;;;;4.60;2.20;;;;;;;25.17;46.36;99627.72;4136606;28;20233;-69
2022/05/13 00:20:40;;;;;;;3.47;2.20;;;;;;;24.90;46.74;99635.91;4135468;28;20680;-69
2022/05/13 00:22:44;;;;;;;3.70;2.30;;;;;;;24.54;47.25;99624.63;4130640;28;20242;-69
2022/05/13 00:24:46;;;;;;;6.40;2.63;;;;;;;24.30;47.63;99626.81;4135472;28;20233;-69
2022/05/13 00:26:47;;;;;;;3.97;2.38;;;;;;;24.64;47.58;99618.50;4130453;28;20265;-69
2022/05/13 00:28:50;;;;;;;5.25;2.38;;;;;;;24.56;47.61;99617.03;4131714;28;20616;-69
2022/05/13 00:30:52;;;;;;;5.68;2.25;;;;;;;24.66;47.51;99610.91;4131647;28;20234;-69
2022/05/13 00:32:54;;;;;;;4.55;2.63;;;;;;;25.07;46.59;99607.75;4129805;28;20303;-69
2022/05/13 00:34:56;;;;;;;4.82;2.25;;;;;;;24.48;47.35;99620.22;4130282;28;20303;-69
2022/05/13 00:36:57;;;;;;;3.58;2.20;;;;;;;24.53;47.85;99625.72;4130680;28;20238;-69
2022/05/13 00:39:00;;;;;;;4.00;2.67;;;;;;;25.14;46.45;99622.81;4130212;28;20225;-69
2022/05/13 00:41:02;;;;;;;3.35;2.30;;;;;;;24.24;48.46;99616.94;4128703;28;20321;-69
2022/05/13 00:43:08;;;;;;;3.15;2.20;;;;;;;24.15;48.80;99621.16;4135103;28;20238;-69
2022/05/13 00:45:13;;;;;;;2.78;2.50;;;;;;;24.15;48.75;99619.25;4116672;28;20234;-69
2022/05/13 00:47:15;;;;;;;3.67;2.42;;;;;;;24.77;46.69;99620.03;4112508;28;20942;-69
2022/05/13 00:49:17;;;;;;;3.53;2.30;;;;;;;25.10;45.92;99618.13;4117298;28;20242;-68
2022/05/13 00:51:26;;;;;;;4.90;2.65;;;;;;;24.14;47.61;99628.47;4114456;28;20238;-69
2022/05/13 00:53:28;;;;;;;4.32;2.65;;;;;;;24.37;47.03;99626.63;4119687;28;20234;-69
2022/05/13 00:55:36;;;;;;;5.47;2.70;;;;;;;24.37;47.40;99622.00;4114666;28;20234;-70
2022/05/13 00:57:39;;;;;;;3.45;2.30;;;;;;;24.65;46.43;99629.13;4121255;28;20398;-69
2022/05/13 00:59:45;;;;;;;5.50;2.58;;;;;;;24.43;46.55;99626.44;4114105;28;20238;-69
2022/05/13 01:01:48;;;;;;;4.50;2.45;;;;;;;24.49;46.93;99630.00;4119084;28;20268;-69
2022/05/13 01:03:50;;;;;;;4.50;2.20;;;;;;;24.53;46.43;99620.28;4117049;28;20784;-69
2022/05/13 01:05:59;;;;;;;6.13;2.70;;;;;;;24.64;46.51;99624.75;4118227;28;20620;-69
2022/05/13 01:08:05;;;;;;;6.10;2.05;;;;;;;24.81;46.03;99618.41;4121857;28;20241;-69
2022/05/13 01:10:14;;;;;;;3.83;2.70;;;;;;;24.23;46.48;99626.19;4126396;28;20226;-69
2022/05/13 01:12:21;;;;;;;3.80;2.13;;;;;;;24.43;46.79;99620.16;4126445;28;20381;-69
2022/05/13 01:14:29;;;;;;;3.72;2.42;;;;;;;24.60;46.55;99620.09;4126198;28;20238;-69
2022/05/13 01:18:05;;;;;;;5.45;2.60;;;;;;;24.45;46.63;99612.59;4129514;28;20682;-69
2022/05/13 01:18:53;;;;;;;6.25;2.50;;;;;;;23.89;47.80;99616.22;4112778;28;20245;-68
2022/05/13 01:20:55;;;;;;;3.70;2.28;;;;;;;23.88;47.64;99613.75;4127646;28;20253;-69
2022/05/13 01:23:00;;;;;;;7.38;2.80;;;;;;;24.16;47.07;99612.75;4127451;28;20241;-69
2022/05/13 01:25:02;;;;;;;6.00;2.63;;;;;;;24.31;47.26;99610.25;4127623;28;20230;-69
2022/05/13 01:27:04;;;;;;;5.32;2.45;;;;;;;24.37;46.79;99615.75;4128805;28;20669;-69
2022/05/13 01:29:06;;;;;;;4.53;2.40;;;;;;;24.12;47.08;99617.84;4128269;28;20288;-69
2022/05/13 01:31:11;;;;;;;4.13;2.92;;;;;;;23.76;47.61;99622.00;4125121;28;21384;-69
2022/05/13 01:33:13;;;;;;;5.97;2.70;;;;;;;23.89;47.31;99620.81;4129066;28;20269;-69
2022/05/13 01:35:15;;;;;;;4.18;2.42;;;;;;;24.00;47.27;99617.16;4126697;28;20288;-69
2022/05/13 01:37:16;;;;;;;5.28;2.78;;;;;;;23.58;48.25;99617.66;4128478;28;20296;-70
2022/05/13 01:39:18;;;;;;;4.18;2.40;;;;;;;23.95;47.37;99614.38;4127742;28;20293;-68
2022/05/13 01:41:20;;;;;;;3.88;2.40;;;;;;;24.02;46.94;99609.56;4127929;28;20299;-69
2022/05/13 01:43:23;;;;;;;4.75;2.72;;;;;;;23.61;47.90;99608.22;4127878;28;20292;-69
2022/05/13 01:45:25;;;;;;;5.30;2.50;;;;;;;24.02;47.04;99606.06;4128897;28;20592;-68
2022/05/13 01:47:28;;;;;;;3.88;2.30;;;;;;;24.17;46.71;99611.69;4126451;28;20696;-69
2022/05/13 01:49:30;;;;;;;5.95;2.20;;;;;;;24.08;46.79;99619.44;4123887;28;20226;-68
2022/05/13 01:51:31;;;;;;;5.13;2.08;;;;;;;23.95;47.51;99625.25;4128816;28;20229;-69
2022/05/13 01:53:33;;;;;;;5.53;2.92;;;;;;;23.43;48.37;99625.53;4130566;28;20601;-70
2022/05/13 01:55:35;;;;;;;6.15;2.30;;;;;;;23.81;47.87;99618.53;4127419;28;20237;-69
2022/05/13 01:57:37;;;;;;;5.20;2.67;;;;;;;23.21;48.32;99629.00;4126982;28;20687;-69
2022/05/13 01:59:39;;;;;;;2.40;2.08;;;;;;;23.76;48.08;99611.16;4128570;28;20238;-69
2022/05/13 02:01:41;;;;;;;3.58;2.28;;;;;;;23.72;47.86;99612.69;4124214;28;20229;-69
2022/05/13 02:03:45;;;;;;;7.80;2.47;;;;;;;23.97;47.62;99614.94;4127174;28;20234;-69
2022/05/13 02:05:49;;;;;;;4.32;2.63;;;;;;;23.61;47.60;99619.88;4128842;28;20252;-69
2022/05/13 02:07:51;;;;;;;4.30;2.30;;;;;;;23.70;48.12;99614.84;4126945;28;20242;-69
2022/05/13 02:09:53;;;;;;;5.95;2.20;;;;;;;24.04;47.61;99612.88;4128465;28;20241;-69
2022/05/13 02:11:55;;;;;;;4.30;2.40;;;;;;;24.22;46.96;99621.81;4127348;28;20291;-69
2022/05/13 02:13:56;;;;;;;2.67;2.28;;;;;;;23.84;47.38;99618.03;4125183;28;20233;-69
2022/05/13 02:15:58;;;;;;;6.40;2.60;;;;;;;23.56;47.96;99622.53;4128467;28;20794;-69
2022/05/13 02:18:00;;;;;;;3.67;2.50;;;;;;;23.33;48.66;99613.47;4127427;28;20274;-69
2022/05/13 02:20:05;;;;;;;3.83;2.40;;;;;;;23.53;48.02;99612.13;4128038;28;20226;-69
2022/05/13 02:22:06;;;;;;;6.38;2.70;;;;;;;23.57;48.09;99608.72;4124480;28;20226;-69
2022/05/13 02:24:08;;;;;;;4.38;2.67;;;;;;;23.76;47.30;99597.56;4128024;28;20316;-69
2022/05/13 02:26:13;;;;;;;6.97;2.50;;;;;;;23.93;47.11;99605.66;4125103;28;20234;-69
2022/05/13 02:28:15;;;;;;;6.00;2.58;;;;;;;23.63;48.06;99606.88;4126948;28;20237;-69
2022/05/13 02:30:17;;;;;;;5.47;2.50;;;;;;;23.78;47.74;99611.72;4125234;28;20233;-69
2022/05/13 02:32:19;;;;;;;3.65;2.50;;;;;;;24.08;46.66;99607.78;4128211;28;20331;-69
2022/05/13 02:34:21;;;;;;;2.53;2.30;;;;;;;23.71;48.04;99621.94;4130658;28;20230;-69
2022/05/13 02:36:22;;;;;;;4.85;2.60;;;;;;;23.20;48.99;99614.63;4128323;28;20292;-69
2022/05/13 02:38:25;;;;;;;3.78;2.40;;;;;;;23.64;48.24;99596.88;4128419;28;20714;-69
2022/05/13 02:42:51;;;;;;;5.20;2.95;;;;;;;24.20;47.15;99600.34;4120366;28;20679;-69
2022/05/13 02:44:53;;;;;;;4.63;2.63;;;;;;;24.07;47.63;99606.94;4126045;28;20234;-69
2022/05/13 02:46:55;;;;;;;6.07;3.45;;;;;;;23.93;47.61;99603.78;4125610;28;20234;-69
2022/05/13 02:48:56;;;;;;;5.13;2.35;;;;;;;23.47;48.53;99611.25;4127994;28;20279;-69
2022/05/13 02:50:58;;;;;;;6.90;2.60;;;;;;;24.08;47.12;99602.34;4127743;28;20300;-69
2022/05/13 02:52:59;;;;;;;5.55;2.80;;;;;;;24.37;46.46;99604.88;4125759;28;20225;-69
2022/05/13 02:55:01;;;;;;;5.25;2.72;;;;;;;24.23;46.86;99604.47;4128271;28;20222;-69
2022/05/13 02:57:04;;;;;;;4.15;2.47;;;;;;;23.86;47.36;99611.28;4126428;28;20666;-69
2022/05/13 02:59:06;;;;;;;5.45;2.50;;;;;;;23.86;47.75;99613.19;4127655;28;20238;-69
2022/05/13 03:01:10;;;;;;;6.72;2.47;;;;;;;23.98;47.32;99608.44;4133257;28;20233;-69
2022/05/13 03:03:12;;;;;;;3.90;2.28;;;;;;;23.30;48.60;99607.69;4130944;28;20288;-68
2022/05/13 03:05:14;;;;;;;4.25;2.85;;;;;;;23.86;47.52;99603.13;4133214;28;20315;-68
2022/05/13 03:07:16;;;;;;;4.90;2.55;;;;;;;23.37;48.74;99602.94;4129414;28;20241;-69
2022/05/13 03:09:18;;;;;;;5.93;2.67;;;;;;;23.58;48.58;99602.19;4134018;28;20311;-69
2022/05/13 03:11:23;;;;;;;5.05;2.20;;;;;;;23.87;47.97;99599.38;4129669;28;20863;-70
2022/05/13 03:13:25;;;;;;;6.22;2.72;;;;;;;22.68;49.49;99605.81;4123177;28;22316;-69
2022/05/13 03:15:27;;;;;;;4.68;2.67;;;;;;;23.15;49.34;99616.44;4110746;28;20234;-69
2022/05/13 03:17:29;;;;;;;5.75;2.58;;;;;;;24.02;47.83;99606.88;4110437;28;20234;-69
2022/05/13 03:19:31;;;;;;;5.30;2.75;;;;;;;22.91;49.47;99610.28;4111710;28;20238;-69
2022/05/13 03:21:32;;;;;;;3.90;2.55;;;;;;;23.84;47.75;99608.00;4112118;28;20237;-69
2022/05/13 03:23:34;;;;;;;6.28;2.90;;;;;;;24.05;47.53;99611.78;4108297;28;20310;-69
2022/05/13 03:25:36;;;;;;;7.50;2.80;;;;;;;23.53;48.33;99610.22;4109805;28;20668;-68
2022/05/13 03:27:38;;;;;;;4.93;2.50;;;;;;;23.72;48.33;99604.56;4110721;28;20297;-69
2022/05/13 03:29:40;;;;;;;7.55;2.65;;;;;;;23.63;48.55;99606.88;4110867;28;20352;-69
2022/05/13 03:31:42;;;;;;;5.30;2.42;;;;;;;22.95;49.30;99622.31;4105812;28;20260;-70
2022/05/13 03:33:43;;;;;;;4.07;2.70;;;;;;;23.44;48.83;99608.19;4108256;28;20245;-69
2022/05/13 03:35:47;;;;;;;3.13;2.42;;;;;;;24.02;47.41;99604.16;4109804;28;20259;-69
2022/05/13 03:37:48;;;;;;;4.78;2.95;;;;;;;24.07;47.43;99606.94;4112213;28;20241;-70
2022/05/13 03:39:50;;;;;;;6.80;2.80;;;;;;;23.30;48.50;99613.97;4119722;28;20262;-69
2022/05/13 03:41:52;;;;;;;3.35;2.50;;;;;;;23.65;47.95;99614.78;4122020;28;20230;-67
2022/05/13 03:43:54;;;;;;;5.95;2.53;;;;;;;23.43;48.40;99612.78;4121976;28;20619;-68
2022/05/13 03:45:56;;;;;;;6.07;2.85;;;;;;;23.81;47.22;99613.94;4123729;28;20242;-68
2022/05/13 03:47:57;;;;;;;6.13;3.03;;;;;;;23.69;47.91;99615.94;4122199;28;20237;-70
2022/05/13 03:50:00;;;;;;;7.65;3.30;;;;;;;23.75;47.90;99628.50;4125270;28;20314;-69
2022/05/13 03:52:01;;;;;;;4.30;2.80;;;;;;;22.96;49.65;99626.66;4122804;28;20222;-69
2022/05/13 03:54:03;;;;;;;9.52;3.33;;;;;;;23.65;48.31;99617.50;4121106;28;20230;-68
2022/05/13 03:56:06;;;;;;;4.20;2.83;;;;;;;24.13;47.65;99627.66;4123646;28;20301;-68
2022/05/13 03:58:08;;;;;;;4.15;2.80;;;;;;;23.93;47.86;99624.69;4121474;28;20309;-68
2022/05/13 04:00:12;;;;;;;6.05;2.97;;;;;;;23.81;48.42;99632.94;4123551;28;20711;-68
2022/05/13 04:02:14;;;;;;;7.60;3.33;;;;;;;22.81;50.22;99633.44;4122279;28;20230;-68
2022/05/13 04:04:20;;;;;;;6.35;3.05;;;;;;;23.27;49.39;99625.31;4115715;28;20709;-69
2022/05/13 04:08:57;;;;;;;3.45;2.60;;;;;;;23.70;48.20;99623.81;4113252;28;20231;-68
2022/05/13 04:11:00;;;;;;;7.38;2.92;;;;;;;23.00;50.25;99627.84;4111841;28;20280;-68
2022/05/13 04:17:42;;;;;;;5.65;3.38;;;;;;;23.67;48.54;99634.34;4129356;28;20242;-68
2022/05/13 04:19:44;;;;;;;5.22;3.08;;;;;;;23.07;49.99;99636.63;4129837;28;20280;-69
2022/05/13 04:21:46;;;;;;;6.10;2.67;;;;;;;23.41;49.10;99630.41;4129244;28;20268;-68
2022/05/13 04:23:51;;;;;;;4.45;2.75;;;;;;;23.78;48.79;99633.44;4129486;28;20768;-68
2022/05/13 04:25:52;;;;;;;5.80;3.40;;;;;;;23.72;48.57;99634.41;4129259;28;20304;-68
2022/05/13 04:27:54;;;;;;;4.40;2.60;;;;;;;23.52;49.03;99637.63;4129836;28;20242;-68
2022/05/13 04:29:56;;;;;;;6.45;2.70;;;;;;;23.70;48.28;99634.66;4129603;28;20241;-68
2022/05/13 04:31:57;;;;;;;3.95;3.03;;;;;;;23.84;48.13;99646.00;4128767;28;20237;-68
2022/05/13 04:34:00;;;;;;;4.80;2.95;;;;;;;23.74;48.31;99656.72;4129464;28;20240;-68
2022/05/13 04:36:01;;;;;;;8.13;3.08;;;;;;;23.55;48.87;99643.41;4130149;28;20659;-68
2022/05/13 04:38:03;;;;;;;7.68;3.10;;;;;;;23.48;49.19;99655.47;4128962;28;20554;-68
2022/05/13 04:40:06;;;;;;;8.13;3.10;;;;;;;23.56;48.48;99655.91;4128510;28;20300;-68
2022/05/13 04:44:29;;;;;;;6.20;3.00;;;;;;;23.70;48.14;99666.41;4128758;28;20238;-68
2022/05/13 04:46:32;;;;;;;5.80;3.35;;;;;;;23.73;48.63;99663.22;4128491;28;20292;-68
2022/05/13 04:48:33;;;;;;;6.05;2.92;;;;;;;23.44;48.71;99673.31;4129508;28;20269;-68
2022/05/13 04:50:36;;;;;;;6.22;3.20;;;;;;;23.70;48.44;99666.41;4128716;28;20737;-68
2022/05/13 04:52:38;;;;;;;5.15;2.95;;;;;;;23.72;48.41;99675.13;4128984;28;20325;-70
2022/05/13 04:54:39;;;;;;;5.07;2.75;;;;;;;24.06;47.66;99672.38;4128754;28;20663;-68
2022/05/13 04:56:41;;;;;;;6.38;3.20;;;;;;;23.81;48.18;99676.38;4122788;28;20234;-68
2022/05/13 04:58:43;;;;;;;5.33;3.20;;;;;;;23.57;48.57;99675.75;4129414;28;20280;-68
2022/05/13 05:00:46;;;;;;;5.72;3.45;;;;;;;23.09;49.42;99679.78;4133866;28;20231;-68
2022/05/13 05:03:05;;;;;;;8.27;3.13;;;;;;;23.07;49.59;99663.75;4123104;28;20754;-68
2022/05/13 05:05:07;;;;;;;4.35;2.97;;;;;;;22.68;50.05;99674.38;4132412;28;20261;-68
2022/05/13 05:07:09;;;;;;;10.23;3.40;;;;;;;22.96;49.75;99668.19;4131250;28;20269;-68
2022/05/13 05:09:10;;;;;;;8.43;3.38;;;;;;;22.85;49.87;99671.72;4134695;28;20240;-69
2022/05/13 05:11:14;;;;;;;5.88;3.38;;;;;;;23.32;49.38;99668.78;4129831;28;20369;-68
2022/05/13 05:13:27;;;;;;;7.57;3.35;;;;;;;23.17;49.31;99663.91;4134424;28;20335;-69
2022/05/13 05:15:29;;;;;;;8.35;3.40;;;;;;;23.02;49.97;99674.50;4127754;28;20233;-68
2022/05/13 05:17:31;;;;;;;4.97;3.22;;;;;;;23.50;48.72;99670.44;4129288;28;20273;-68
2022/05/13 05:19:33;;;;;;;7.93;3.83;;;;;;;23.43;48.94;99667.06;4131714;28;20230;-68
2022/05/13 05:21:34;;;;;;;6.53;2.78;;;;;;;23.21;48.75;99675.09;4129153;28;20233;-68
2022/05/13 05:23:39;;;;;;;7.57;3.20;;;;;;;23.08;48.91;99681.66;4134844;28;20229;-68
2022/05/13 05:25:42;;;;;;;7.68;3.65;;;;;;;23.12;49.07;99685.53;4131493;28;20230;-68
2022/05/13 05:27:44;;;;;;;7.53;3.75;;;;;;;23.50;48.72;99681.31;4131225;28;20304;-69
2022/05/13 05:29:46;;;;;;;6.18;3.10;;;;;;;23.43;49.24;99688.75;4133034;28;20632;-68
2022/05/13 05:31:48;;;;;;;7.05;3.45;;;;;;;23.45;48.96;99683.94;4125791;28;20295;-68
2022/05/13 05:33:50;;;;;;;12.25;4.88;;;;;;;23.49;48.93;99689.69;4126433;28;20234;-68
2022/05/13 05:35:52;;;;;;;6.93;2.90;;;;;;;22.36;50.84;99691.06;4129298;28;20245;-68
2022/05/13 05:37:54;;;;;;;6.20;3.00;;;;;;;23.53;48.31;99683.50;4133259;28;20241;-69
2022/05/13 05:39:55;;;;;;;7.82;2.88;;;;;;;23.71;47.72;99685.19;4131028;28;20245;-69
2022/05/13 05:41:57;;;;;;;8.57;3.17;;;;;;;23.61;48.03;99698.59;4133557;28;20662;-69
2022/05/13 05:43:59;;;;;;;6.18;3.60;;;;;;;22.92;48.88;99694.09;4132395;28;20237;-68
2022/05/13 05:46:00;;;;;;;7.63;3.40;;;;;;;23.77;48.22;99696.91;4138172;28;20269;-68
2022/05/13 05:48:02;;;;;;;6.13;3.22;;;;;;;23.24;48.66;99701.75;4137428;28;20533;-68
2022/05/13 05:50:08;;;;;;;5.40;3.30;;;;;;;22.42;50.18;99703.69;4142117;28;20327;-68
2022/05/13 05:52:11;;;;;;;6.63;3.10;;;;;;;23.04;48.42;99698.66;4138289;28;20240;-68
2022/05/13 05:58:54;;;;;;;4.43;2.72;;;;;;;23.28;47.92;99711.06;4126068;28;20226;-68
2022/05/13 06:00:55;;;;;;;5.07;3.13;;;;;;;23.02;48.30;99715.19;4126473;28;20238;-68
2022/05/13 06:02:58;;;;;;;4.57;2.70;;;;;;;23.40;47.82;99719.13;4127189;28;20780;-68
2022/05/13 06:04:59;;;;;;;8.27;3.50;;;;;;;23.29;47.52;99703.72;4127709;28;20233;-68
2022/05/13 06:07:03;;;;;;;6.75;3.30;;;;;;;23.43;47.53;99710.47;4126268;28;20769;-68
2022/05/13 06:09:04;;;;;;;7.80;3.45;;;;;;;23.57;47.36;99713.72;4127651;28;20245;-68
2022/05/13 06:11:07;;;;;;;7.03;3.97;;;;;;;23.57;47.19;99722.69;4115477;28;20229;-68
2022/05/13 06:13:10;;;;;;;8.32;3.88;;;;;;;23.85;46.67;99723.66;4116515;28;20679;-68
2022/05/13 06:15:12;;;;;;;8.65;3.65;;;;;;;23.33;47.54;99735.56;4117581;28;20292;-68
2022/05/13 06:17:14;;;;;;;8.05;4.20;;;;;;;23.24;47.35;99739.72;4115500;28;20674;-69
2022/05/13 06:19:16;;;;;;;6.95;4.22;;;;;;;23.05;47.64;99743.69;4121663;28;20798;-68
2022/05/13 06:21:18;;;;;;;6.43;3.00;;;;;;;23.35;46.73;99743.41;4114397;28;20297;-68
2022/05/13 06:23:19;;;;;;;6.88;3.38;;;;;;;22.73;48.17;99744.94;4121242;28;20718;-68
2022/05/13 06:25:22;;;;;;;8.07;2.90;;;;;;;22.93;47.67;99741.00;4116459;28;20285;-68
2022/05/13 06:27:23;;;;;;;6.60;3.10;;;;;;;22.58;47.95;99742.75;4118655;28;20266;-68
2022/05/13 06:29:26;;;;;;;4.32;2.88;;;;;;;23.05;47.17;99744.53;4114155;28;20277;-68
2022/05/13 06:31:28;;;;;;;10.87;3.10;;;;;;;22.96;46.82;99754.94;4115171;28;20675;-68
2022/05/13 06:33:29;;;;;;;7.95;3.10;;;;;;;22.65;47.42;99750.75;4116493;28;20309;-68
2022/05/13 06:35:34;;;;;;;4.88;2.95;;;;;;;22.56;48.30;99763.03;4111734;28;20368;-68
2022/05/13 06:37:36;;;;;;;8.02;3.30;;;;;;;23.32;46.55;99752.88;4117716;28;20270;-68
2022/05/13 06:39:38;;;;;;;9.80;3.03;;;;;;;22.92;46.77;99764.59;4112952;28;20305;-68
2022/05/13 06:41:40;;;;;;;8.13;3.10;;;;;;;22.69;47.19;99759.22;4121905;28;20238;-68
2022/05/13 06:43:42;;;;;;;6.90;2.80;;;;;;;23.13;46.65;99763.13;4109328;28;20230;-68
2022/05/13 06:45:43;;;;;;;7.75;3.63;;;;;;;23.07;46.45;99766.78;4106131;28;20810;-68
2022/05/13 06:47:45;;;;;;;5.87;3.27;;;;;;;22.74;47.75;99759.31;4114339;28;20249;-68
2022/05/13 06:49:47;;;;;;;7.37;3.20;;;;;;;22.41;48.15;99769.75;4119298;28;20288;-68
2022/05/13 06:51:49;;;;;;;6.43;2.73;;;;;;;22.46;48.12;99763.63;4114726;28;20302;-68
2022/05/13 06:53:51;;;;;;;7.73;3.23;;;;;;;22.37;48.04;99765.88;4112739;28;20230;-68
2022/05/13 06:55:52;;;;;;;7.70;3.50;;;;;;;22.33;47.89;99767.38;4120803;28;20254;-68
2022/05/13 06:57:54;;;;;;;6.30;3.03;;;;;;;22.54;47.73;99770.53;4113739;28;20242;-68
2022/05/13 06:59:56;;;;;;;6.47;3.40;;;;;;;22.63;47.72;99753.69;4119933;28;20464;-68
2022/05/13 07:01:57;;;;;;;8.93;4.03;;;;;;;22.48;48.16;99774.22;4113266;28;20370;-68
2022/05/13 07:03:59;;;;;;;7.93;3.13;;;;;;;22.87;47.44;99769.88;4113551;28;20241;-69
2022/05/13 07:06:00;;;;;;;7.77;2.93;;;;;;;23.32;46.81;99760.22;4114898;28;20262;-68
2022/05/13 07:08:02;;;;;;;6.87;3.27;;;;;;;23.50;46.64;99770.00;4115089;28;20233;-67
2022/05/13 07:10:06;;;;;;;7.77;4.27;;;;;;;22.93;47.57;99773.53;4120703;28;20226;-67
2022/05/13 07:12:08;;;;;;;6.60;3.07;;;;;;;23.16;47.16;99769.94;4127073;28;20229;-67
2022/05/13 07:14:11;;;;;;;4.67;2.87;;;;;;;22.96;46.64;99786.63;4133570;28;20221;-69
2022/05/13 07:16:13;;;;;;;8.90;3.07;;;;;;;23.28;45.71;99780.72;4132963;28;20241;-69
2022/05/13 07:18:16;;;;;;;8.03;3.33;;;;;;;23.72;45.15;99778.28;4127936;28;20726;-68
2022/05/13 07:20:17;;;;;;;6.30;2.58;;;;;;;23.34;45.45;99785.19;4131167;28;20703;-68
2022/05/13 07:22:20;;;;;;;8.60;3.23;;;;;;;23.67;44.81;99792.63;4137233;28;20279;-69
2022/05/13 07:24:23;;;;;;;5.57;2.70;;;;;;;23.28;45.31;99788.88;4130038;28;20229;-68
2022/05/13 07:26:26;;;;;;;6.13;2.70;;;;;;;23.55;45.07;99789.09;4128331;28;20230;-70
2022/05/13 07:28:27;;;;;;;6.47;2.80;;;;;;;22.90;46.26;99793.81;4134809;28;20293;-68
2022/05/13 07:30:29;;;;;;;10.50;2.83;;;;;;;22.49;45.35;99797.53;4133246;28;20819;-68
2022/05/13 07:32:31;;;;;;;6.80;2.70;;;;;;;23.00;44.98;99788.63;4130825;28;20304;-69
2022/05/13 07:34:33;;;;;;;6.55;3.00;;;;;;;23.25;44.75;99789.34;4132068;28;20240;-69
2022/05/13 07:36:35;;;;;;;6.60;2.60;;;;;;;23.70;44.54;99791.28;4137339;28;20226;-69
2022/05/13 07:41:16;;;;;;;6.07;3.07;;;;;;;23.74;44.18;99795.16;4132520;28;20964;-69
2022/05/13 07:41:17;;;;;;;4.53;3.00;;;;;;;23.93;44.06;99798.47;4131918;28;20662;-68
2022/05/13 07:43:19;;;;;;;5.60;3.00;;;;;;;23.83;43.80;99799.13;4127853;28;20225;-69
2022/05/13 07:45:20;;;;;;;6.03;2.95;;;;;;;23.81;43.56;99795.81;4134802;28;20678;-68
2022/05/13 07:47:22;;;;;;;8.80;2.70;;;;;;;24.08;43.47;99800.59;4134896;28;20658;-68
2022/05/13 07:49:24;;;;;;;8.90;2.70;;;;;;;24.03;44.03;99795.09;4136792;28;20245;-69
2022/05/13 07:51:26;;;;;;;7.30;2.80;;;;;;;23.23;45.32;99797.72;4133862;28;20264;-68
2022/05/13 07:53:28;;;;;;;6.60;2.60;;;;;;;23.64;44.33;99797.72;4131344;28;20285;-68
2022/05/13 07:55:30;;;;;;;5.93;2.80;;;;;;;23.54;44.29;99801.84;4130893;28;20318;-68
2022/05/13 07:57:32;;;;;;;7.93;2.60;;;;;;;23.93;43.84;99801.19;4133434;28;20253;-69
2022/05/13 08:00:24;;;;;;;7.50;2.60;;;;;;;24.13;42.91;99801.50;4131283;28;20241;-69
2022/05/13 08:01:59;;;;;;;5.78;2.42;;;;;;;23.83;43.06;99806.44;4128250;28;20608;-67
2022/05/13 08:04:01;;;;;;;7.82;2.85;;;;;;;23.86;44.01;99798.63;4133211;28;20233;-67
2022/05/13 08:06:04;;;;;;;7.35;2.55;;;;;;;23.98;42.71;99797.72;4131492;28;20251;-70
2022/05/13 08:08:11;;;;;;;4.65;2.85;;;;;;;23.65;43.57;99800.16;4131443;28;20233;-70
2022/05/13 08:10:13;;;;;;;8.23;2.40;;;;;;;23.33;42.73;99795.25;4130153;28;20229;-69
2022/05/13 08:12:16;;;;;;;5.83;2.23;;;;;;;23.28;42.77;99810.56;4135185;28;20225;-69
2022/05/13 08:14:17;;;;;;;4.73;2.47;;;;;;;23.36;42.80;99793.91;4134428;28;20244;-70
2022/05/13 08:16:22;;;;;;;4.93;2.22;;;;;;;23.20;43.15;99796.34;4128413;28;20293;-68
2022/05/13 08:18:24;;;;;;;5.97;2.10;;;;;;;23.35;42.74;99801.25;4132996;28;20248;-69
2022/05/13 08:20:27;;;;;;;9.68;2.30;;;;;;;23.57;41.58;99795.97;4131872;28;20234;-69
2022/05/13 08:22:28;;;;;;;6.80;2.53;;;;;;;23.63;41.71;99798.78;4141155;28;20239;-68
2022/05/13 08:24:30;;;;;;;6.97;2.55;;;;;;;23.72;42.08;99794.56;4132298;28;20288;-69
2022/05/13 08:26:32;;;;;;;7.10;2.50;;;;;;;23.25;43.18;99789.34;4135113;28;20233;-69
2022/05/13 08:28:34;;;;;;;5.80;2.50;;;;;;;23.13;43.06;99798.38;4129205;28;20234;-69
2022/05/13 08:30:37;;;;;;;5.88;2.20;;;;;;;22.60;42.66;99794.00;4130204;28;20312;-68
2022/05/13 08:32:39;;;;;;;6.13;2.60;;;;;;;22.94;42.20;99783.34;4134173;28;20241;-69
2022/05/13 08:34:40;;;;;;;7.68;2.10;;;;;;;23.11;42.25;99783.41;4128934;28;20280;-69
2022/05/13 08:37:02;;;;;;;3.92;2.38;;;;;;;23.14;41.15;99791.06;4131262;28;20264;-69
2022/05/13 08:39:04;;;;;;;4.65;2.17;;;;;;;23.57;41.10;99790.53;4132521;28;20249;-68
2022/05/13 08:41:07;;;;;;;5.00;2.10;;;;;;;23.90;41.11;99799.75;4131833;28;20234;-68
2022/05/13 08:43:13;;;;;;;3.67;2.17;;;;;;;23.60;40.87;99813.63;4131104;28;20242;-69
2022/05/13 08:45:17;;;;;;;5.63;2.38;;;;;;;23.56;41.09;99799.72;4136600;28;20268;-69
2022/05/13 08:47:27;;;;;;;4.10;2.03;;;;;;;22.98;42.32;99796.19;4130028;28;20292;-68
2022/05/13 08:49:52;;;;;;;5.78;2.33;;;;;;;23.22;41.49;99787.97;4135588;28;20330;-68
2022/05/13 08:53:06;;;;;;;4.05;2.10;;;;;;;23.60;41.08;99796.53;4134091;28;20237;-69
2022/05/13 08:54:35;;;;;;;4.70;2.13;;;;;;;23.45;40.92;99800.59;4130038;28;20627;-68
2022/05/13 08:56:37;;;;;;;4.32;2.05;;;;;;;23.89;40.20;99792.72;4128912;28;20675;-69
2022/05/13 08:59:07;;;;;;;5.85;2.42;;;;;;;23.98;39.88;99792.31;4128715;28;20357;-67
2022/05/13 09:01:14;;;;;;;6.80;2.25;;;;;;;23.73;40.74;99798.94;4113267;28;20234;-69
2022/05/13 09:03:28;;;;;;;5.38;1.92;;;;;;;23.96;40.20;99795.25;4114082;28;20540;-68
2022/05/13 09:05:43;;;;;;;3.22;2.00;;;;;;;23.74;39.95;99797.88;4118876;28;20297;-69
2022/05/13 09:07:44;;;;;;;4.75;1.77;;;;;;;23.54;39.59;99798.31;4111794;28;20311;-68
2022/05/13 09:09:51;;;;;;;4.55;1.95;;;;;;;23.61;40.16;99799.00;4106600;28;20318;-68
2022/05/13 09:12:18;;;;;;;9.23;2.35;;;;;;;23.18;39.97;99801.19;4103128;28;20233;-68
2022/05/13 09:14:44;;;;;;;5.80;2.43;;;;;;;23.00;40.48;99793.22;4106064;28;20281;-68
2022/05/13 09:17:07;;;;;;;4.13;2.38;;;;;;;22.77;40.83;99784.06;4111801;28;20230;-68
2022/05/13 09:19:25;;;;;;;3.13;2.38;;;;;;;22.69;40.62;99792.53;4120008;28;20746;-69
2022/05/13 09:21:26;;;;;;;8.48;2.42;;;;;;;23.84;39.66;99776.34;4113855;28;20715;-70
2022/05/13 09:23:29;;;;;;;6.13;2.17;;;;;;;23.13;40.17;99783.97;4113293;28;20746;-70
2022/05/13 09:25:50;;;;;;;5.03;2.10;;;;;;;23.16;39.87;99788.91;4113333;28;20242;-71
2022/05/13 09:27:59;;;;;;;5.05;2.00;;;;;;;23.54;39.75;99782.84;4113356;28;20659;-68
2022/05/13 09:30:01;;;;;;;4.03;2.13;;;;;;;23.90;39.36;99790.81;4111116;28;20337;-70
2022/05/13 09:32:22;;;;;;;4.10;2.60;;;;;;;23.84;39.30;99780.91;4116933;28;20732;-69
2022/05/13 09:34:57;;;;;;;4.75;1.60;;;;;;;23.39;39.30;99790.72;4108238;28;20321;-69
2022/05/13 09:37:24;;;;;;;4.13;2.20;;;;;;;23.95;38.70;99791.69;4118358;28;20637;-70
2022/05/13 09:39:25;;;;;;;3.15;1.70;;;;;;;24.53;38.45;99793.41;4116453;28;20644;-70
2022/05/13 09:41:27;;;;;;;4.10;2.05;;;;;;;24.19;38.00;99782.59;4118286;28;20325;-70
2022/05/13 09:43:44;;;;;;;3.08;1.90;;;;;;;24.40;39.86;99797.31;4110318;28;20786;-69
2022/05/13 09:46:00;;;;;;;4.35;1.90;;;;;;;24.18;38.11;99783.69;4109375;28;20242;-69
2022/05/13 09:48:19;;;;;;;2.70;1.80;;;;;;;24.54;38.47;99784.19;4111832;28;20379;-70
2022/05/13 09:50:25;;;;;;;3.42;2.05;;;;;;;23.29;40.11;99785.09;4112215;28;20719;-69
2022/05/13 09:52:34;;;;;;;3.78;1.90;;;;;;;23.66;38.82;99782.00;4113120;28;20245;-69
2022/05/13 09:54:41;;;;;;;7.03;2.00;;;;;;;23.85;38.26;99774.44;4118121;28;20230;-70
2022/05/13 09:56:44;;;;;;;7.60;2.22;;;;;;;23.99;38.93;99788.50;4110292;28;20301;-70
2022/05/13 09:58:51;;;;;;;4.78;1.67;;;;;;;24.12;38.58;99780.81;4135108;28;20280;-70
2022/05/13 10:01:05;;;;;;;8.40;2.20;;;;;;;23.79;38.87;99780.84;4131344;28;20906;-69